sensor_id;sensor_type;location;lat;lon;timestamp;temperature;humidity
796;DHT22;381;48.770;9.188;2022-08-19T00:02:14;23.90;81.40
796;DHT22;381;48.770;9.188;2022-08-19T00:07:17;23.90;80.90
796;DHT22;381;48.770;9.188;2022-08-19T00:12:19;23.90;79.80
796;DHT22;381;48.770;9.188;2022-08-19T00:17:22;23.90;80.20
796;DHT22;381;48.770;9.188;2022-08-19T00:22:25;23.90;80.00
796;DHT22;381;48.770;9.188;2022-08-19T00:27:29;23.90;79.80
796;DHT22;381;48.770;9.188;2022-08-19T00:32:31;23.80;80.20
796;DHT22;381;48.770;9.188;2022-08-19T00:37:36;23.80;80.80
796;DHT22;381;48.770;9.188;2022-08-19T00:42:39;23.80;81.00
796;DHT22;381;48.770;9.188;2022-08-19T00:47:41;23.80;81.00
796;DHT22;381;48.770;9.188;2022-08-19T00:52:46;23.80;80.90
796;DHT22;381;48.770;9.188;2022-08-19T00:57:53;23.80;82.80
796;DHT22;381;48.770;9.188;2022-08-19T01:02:56;23.80;81.60
796;DHT22;381;48.770;9.188;2022-08-19T01:08:02;23.80;80.90
796;DHT22;381;48.770;9.188;2022-08-19T01:13:04;23.70;81.40
796;DHT22;381;48.770;9.188;2022-08-19T01:18:09;23.70;81.90
796;DHT22;381;48.770;9.188;2022-08-19T01:23:14;23.70;82.80
796;DHT22;381;48.770;9.188;2022-08-19T01:28:19;23.70;81.50
796;DHT22;381;48.770;9.188;2022-08-19T01:33:22;23.70;81.50
796;DHT22;381;48.770;9.188;2022-08-19T01:38:26;23.70;82.30
796;DHT22;381;48.770;9.188;2022-08-19T01:43:32;23.70;82.50
796;DHT22;381;48.770;9.188;2022-08-19T01:48:36;23.70;82.10
796;DHT22;381;48.770;9.188;2022-08-19T01:53:41;23.70;82.00
796;DHT22;381;48.770;9.188;2022-08-19T01:58:46;23.70;81.60
796;DHT22;381;48.770;9.188;2022-08-19T02:03:50;23.70;81.50
796;DHT22;381;48.770;9.188;2022-08-19T02:08:55;23.60;82.00
796;DHT22;381;48.770;9.188;2022-08-19T02:13:58;23.70;83.20
796;DHT22;381;48.770;9.188;2022-08-19T02:19:00;23.60;83.00
796;DHT22;381;48.770;9.188;2022-08-19T02:24:04;23.60;82.80
796;DHT22;381;48.770;9.188;2022-08-19T02:29:06;23.60;81.40
796;DHT22;381;48.770;9.188;2022-08-19T02:34:08;23.60;82.90
796;DHT22;381;48.770;9.188;2022-08-19T02:39:12;23.50;83.20
796;DHT22;381;48.770;9.188;2022-08-19T02:44:14;23.50;82.70
796;DHT22;381;48.770;9.188;2022-08-19T02:49:16;23.50;82.30
796;DHT22;381;48.770;9.188;2022-08-19T02:54:20;23.50;82.10
796;DHT22;381;48.770;9.188;2022-08-19T02:59:22;23.50;82.50
796;DHT22;381;48.770;9.188;2022-08-19T03:04:25;23.40;82.70
796;DHT22;381;48.770;9.188;2022-08-19T03:09:28;23.40;83.50
796;DHT22;381;48.770;9.188;2022-08-19T03:14:31;23.40;85.00
796;DHT22;381;48.770;9.188;2022-08-19T03:19:33;23.30;85.80
796;DHT22;381;48.770;9.188;2022-08-19T03:24:37;23.30;86.40
796;DHT22;381;48.770;9.188;2022-08-19T03:29:39;23.30;86.30
796;DHT22;381;48.770;9.188;2022-08-19T03:34:41;23.30;86.90
796;DHT22;381;48.770;9.188;2022-08-19T03:39:45;23.20;85.30
796;DHT22;381;48.770;9.188;2022-08-19T03:44:47;23.20;85.10
796;DHT22;381;48.770;9.188;2022-08-19T03:49:49;23.20;84.70
796;DHT22;381;48.770;9.188;2022-08-19T03:54:53;23.10;84.80
796;DHT22;381;48.770;9.188;2022-08-19T03:59:55;23.00;84.90
796;DHT22;381;48.770;9.188;2022-08-19T04:04:57;23.10;86.00
796;DHT22;381;48.770;9.188;2022-08-19T04:10:00;23.00;85.20
796;DHT22;381;48.770;9.188;2022-08-19T04:15:03;23.00;85.10
796;DHT22;381;48.770;9.188;2022-08-19T04:20:07;23.00;84.90
796;DHT22;381;48.770;9.188;2022-08-19T04:25:11;23.00;85.60
796;DHT22;381;48.770;9.188;2022-08-19T04:30:13;23.00;85.70
796;DHT22;381;48.770;9.188;2022-08-19T04:35:16;23.00;84.50
796;DHT22;381;48.770;9.188;2022-08-19T04:40:19;23.00;85.20
796;DHT22;381;48.770;9.188;2022-08-19T04:45:39;23.00;84.80
796;DHT22;381;48.770;9.188;2022-08-19T04:50:42;22.90;85.20
796;DHT22;381;48.770;9.188;2022-08-19T04:55:46;23.00;84.50
796;DHT22;381;48.770;9.188;2022-08-19T05:00:48;23.00;84.80
796;DHT22;381;48.770;9.188;2022-08-19T05:05:50;23.00;85.30
796;DHT22;381;48.770;9.188;2022-08-19T05:10:53;23.00;86.60
796;DHT22;381;48.770;9.188;2022-08-19T05:15:57;22.90;87.40
796;DHT22;381;48.770;9.188;2022-08-19T05:21:06;22.90;87.30
796;DHT22;381;48.770;9.188;2022-08-19T05:26:27;22.90;87.20
796;DHT22;381;48.770;9.188;2022-08-19T05:31:29;22.90;86.60
796;DHT22;381;48.770;9.188;2022-08-19T05:36:35;22.90;87.20
796;DHT22;381;48.770;9.188;2022-08-19T05:41:43;23.00;86.70
796;DHT22;381;48.770;9.188;2022-08-19T05:46:46;23.00;85.80
796;DHT22;381;48.770;9.188;2022-08-19T05:51:49;23.00;87.20
796;DHT22;381;48.770;9.188;2022-08-19T05:57:00;23.00;86.30
796;DHT22;381;48.770;9.188;2022-08-19T06:02:05;23.00;86.60
796;DHT22;381;48.770;9.188;2022-08-19T06:07:07;23.00;85.70
796;DHT22;381;48.770;9.188;2022-08-19T06:12:10;23.00;87.30
796;DHT22;381;48.770;9.188;2022-08-19T06:17:12;23.00;86.80
796;DHT22;381;48.770;9.188;2022-08-19T06:22:14;23.00;86.30
796;DHT22;381;48.770;9.188;2022-08-19T06:27:18;22.90;87.00
796;DHT22;381;48.770;9.188;2022-08-19T06:32:20;23.00;85.80
796;DHT22;381;48.770;9.188;2022-08-19T06:37:23;23.00;87.20
796;DHT22;381;48.770;9.188;2022-08-19T06:42:26;23.00;87.80
796;DHT22;381;48.770;9.188;2022-08-19T06:47:28;23.00;89.20
796;DHT22;381;48.770;9.188;2022-08-19T06:52:33;22.90;90.00
796;DHT22;381;48.770;9.188;2022-08-19T06:57:36;22.90;90.30
796;DHT22;381;48.770;9.188;2022-08-19T07:02:39;22.90;90.30
796;DHT22;381;48.770;9.188;2022-08-19T07:07:41;22.90;90.70
796;DHT22;381;48.770;9.188;2022-08-19T07:12:45;22.90;90.20
796;DHT22;381;48.770;9.188;2022-08-19T07:17:48;22.90;90.20
796;DHT22;381;48.770;9.188;2022-08-19T07:22:52;22.90;90.30
796;DHT22;381;48.770;9.188;2022-08-19T07:27:55;22.90;90.20
796;DHT22;381;48.770;9.188;2022-08-19T07:32:57;23.00;90.10
796;DHT22;381;48.770;9.188;2022-08-19T07:38:00;22.90;89.90
796;DHT22;381;48.770;9.188;2022-08-19T07:43:05;23.00;89.70
796;DHT22;381;48.770;9.188;2022-08-19T07:48:07;23.00;88.00
796;DHT22;381;48.770;9.188;2022-08-19T07:53:10;22.90;88.70
796;DHT22;381;48.770;9.188;2022-08-19T07:58:16;22.90;88.40
796;DHT22;381;48.770;9.188;2022-08-19T08:03:21;22.90;88.70
796;DHT22;381;48.770;9.188;2022-08-19T08:08:45;22.90;89.00
796;DHT22;381;48.770;9.188;2022-08-19T08:14:06;22.90;90.20
796;DHT22;381;48.770;9.188;2022-08-19T08:19:08;22.90;91.00
796;DHT22;381;48.770;9.188;2022-08-19T08:24:11;22.80;91.00
796;DHT22;381;48.770;9.188;2022-08-19T08:29:15;22.70;91.60
796;DHT22;381;48.770;9.188;2022-08-19T08:34:17;22.60;91.90
796;DHT22;381;48.770;9.188;2022-08-19T08:39:20;22.50;91.20
796;DHT22;381;48.770;9.188;2022-08-19T08:44:31;22.40;91.70
796;DHT22;381;48.770;9.188;2022-08-19T08:49:43;22.40;91.60
796;DHT22;381;48.770;9.188;2022-08-19T08:54:53;22.40;92.10
796;DHT22;381;48.770;9.188;2022-08-19T09:00:02;22.40;92.10
796;DHT22;381;48.770;9.188;2022-08-19T09:05:07;22.50;92.00
796;DHT22;381;48.770;9.188;2022-08-19T09:10:17;22.70;92.30
796;DHT22;381;48.770;9.188;2022-08-19T09:15:28;22.80;92.50
796;DHT22;381;48.770;9.188;2022-08-19T09:20:33;22.90;91.90
796;DHT22;381;48.770;9.188;2022-08-19T09:25:35;23.00;92.20
796;DHT22;381;48.770;9.188;2022-08-19T09:30:40;23.00;92.20
796;DHT22;381;48.770;9.188;2022-08-19T09:35:43;23.10;91.20
796;DHT22;381;48.770;9.188;2022-08-19T09:40:45;23.10;91.50
796;DHT22;381;48.770;9.188;2022-08-19T09:45:48;23.10;92.00
796;DHT22;381;48.770;9.188;2022-08-19T09:50:50;23.20;91.30
796;DHT22;381;48.770;9.188;2022-08-19T09:55:54;23.20;91.50
796;DHT22;381;48.770;9.188;2022-08-19T10:00:59;23.20;91.20
796;DHT22;381;48.770;9.188;2022-08-19T10:06:04;23.30;91.50
796;DHT22;381;48.770;9.188;2022-08-19T10:11:06;23.30;90.90
796;DHT22;381;48.770;9.188;2022-08-19T10:16:12;23.30;90.80
796;DHT22;381;48.770;9.188;2022-08-19T10:21:18;23.40;90.50
796;DHT22;381;48.770;9.188;2022-08-19T10:26:22;23.40;90.60
796;DHT22;381;48.770;9.188;2022-08-19T10:31:28;23.50;90.80
796;DHT22;381;48.770;9.188;2022-08-19T10:36:32;23.50;91.30
796;DHT22;381;48.770;9.188;2022-08-19T10:41:37;23.50;91.70
796;DHT22;381;48.770;9.188;2022-08-19T10:46:42;23.60;92.00
796;DHT22;381;48.770;9.188;2022-08-19T10:51:45;23.70;91.10
796;DHT22;381;48.770;9.188;2022-08-19T10:57:05;23.80;91.50
796;DHT22;381;48.770;9.188;2022-08-19T11:02:10;23.90;91.30
796;DHT22;381;48.770;9.188;2022-08-19T11:07:12;24.00;91.20
796;DHT22;381;48.770;9.188;2022-08-19T11:12:14;24.00;90.70
796;DHT22;381;48.770;9.188;2022-08-19T11:17:21;24.00;89.80
796;DHT22;381;48.770;9.188;2022-08-19T11:22:24;23.90;89.90
796;DHT22;381;48.770;9.188;2022-08-19T11:27:26;23.90;89.30
796;DHT22;381;48.770;9.188;2022-08-19T11:32:31;23.90;89.50
796;DHT22;381;48.770;9.188;2022-08-19T11:37:33;24.00;90.20
796;DHT22;381;48.770;9.188;2022-08-19T11:42:37;24.10;90.00
796;DHT22;381;48.770;9.188;2022-08-19T11:47:59;24.20;90.30
796;DHT22;381;48.770;9.188;2022-08-19T11:53:01;24.30;87.00
796;DHT22;381;48.770;9.188;2022-08-19T11:58:03;24.30;88.10
796;DHT22;381;48.770;9.188;2022-08-19T12:03:08;24.30;87.20
796;DHT22;381;48.770;9.188;2022-08-19T12:08:10;24.40;87.10
796;DHT22;381;48.770;9.188;2022-08-19T12:13:14;24.50;88.50
796;DHT22;381;48.770;9.188;2022-08-19T12:18:20;24.50;87.60
796;DHT22;381;48.770;9.188;2022-08-19T12:23:22;24.50;85.60
796;DHT22;381;48.770;9.188;2022-08-19T12:28:25;24.50;85.70
796;DHT22;381;48.770;9.188;2022-08-19T12:33:28;24.50;87.30
796;DHT22;381;48.770;9.188;2022-08-19T12:38:32;24.50;90.50
796;DHT22;381;48.770;9.188;2022-08-19T12:43:35;24.40;90.80
796;DHT22;381;48.770;9.188;2022-08-19T12:48:39;24.20;91.30
796;DHT22;381;48.770;9.188;2022-08-19T12:53:43;24.10;91.80
796;DHT22;381;48.770;9.188;2022-08-19T12:58:45;24.00;91.90
796;DHT22;381;48.770;9.188;2022-08-19T13:03:49;24.00;92.20
796;DHT22;381;48.770;9.188;2022-08-19T13:08:53;24.10;92.60
796;DHT22;381;48.770;9.188;2022-08-19T13:13:55;24.10;92.80
796;DHT22;381;48.770;9.188;2022-08-19T13:18:58;24.10;93.10
796;DHT22;381;48.770;9.188;2022-08-19T13:24:03;24.10;93.10
796;DHT22;381;48.770;9.188;2022-08-19T13:29:06;24.00;93.10
796;DHT22;381;48.770;9.188;2022-08-19T13:34:30;24.00;93.40
796;DHT22;381;48.770;9.188;2022-08-19T13:39:43;23.80;93.60
796;DHT22;381;48.770;9.188;2022-08-19T13:44:45;23.80;93.90
796;DHT22;381;48.770;9.188;2022-08-19T13:49:49;23.80;93.90
796;DHT22;381;48.770;9.188;2022-08-19T13:54:51;23.70;93.80
796;DHT22;381;48.770;9.188;2022-08-19T13:59:58;23.60;94.00
796;DHT22;381;48.770;9.188;2022-08-19T14:05:02;23.60;94.10
796;DHT22;381;48.770;9.188;2022-08-19T14:10:06;23.50;94.30
796;DHT22;381;48.770;9.188;2022-08-19T14:15:12;23.30;95.00
796;DHT22;381;48.770;9.188;2022-08-19T14:20:16;23.20;95.10
796;DHT22;381;48.770;9.188;2022-08-19T14:25:20;23.10;95.10
796;DHT22;381;48.770;9.188;2022-08-19T14:30:24;23.10;95.00
796;DHT22;381;48.770;9.188;2022-08-19T14:35:30;23.10;94.90
796;DHT22;381;48.770;9.188;2022-08-19T14:40:35;23.00;95.20
796;DHT22;381;48.770;9.188;2022-08-19T14:45:39;23.10;94.90
796;DHT22;381;48.770;9.188;2022-08-19T14:50:42;23.30;94.70
796;DHT22;381;48.770;9.188;2022-08-19T14:55:46;23.30;94.20
796;DHT22;381;48.770;9.188;2022-08-19T15:00:48;23.30;94.00
796;DHT22;381;48.770;9.188;2022-08-19T15:05:51;23.40;94.00
796;DHT22;381;48.770;9.188;2022-08-19T15:10:55;23.40;94.20
796;DHT22;381;48.770;9.188;2022-08-19T15:15:57;23.40;94.00
796;DHT22;381;48.770;9.188;2022-08-19T15:21:04;23.60;93.80
796;DHT22;381;48.770;9.188;2022-08-19T15:26:06;23.80;93.60
796;DHT22;381;48.770;9.188;2022-08-19T15:31:09;24.00;93.20
796;DHT22;381;48.770;9.188;2022-08-19T15:36:14;24.20;92.90
796;DHT22;381;48.770;9.188;2022-08-19T15:41:17;24.30;92.80
796;DHT22;381;48.770;9.188;2022-08-19T15:46:27;24.50;92.60
796;DHT22;381;48.770;9.188;2022-08-19T15:51:33;24.50;92.90
796;DHT22;381;48.770;9.188;2022-08-19T15:56:36;24.60;93.10
796;DHT22;381;48.770;9.188;2022-08-19T16:02:01;24.60;92.90
796;DHT22;381;48.770;9.188;2022-08-19T16:07:22;24.60;92.80
796;DHT22;381;48.770;9.188;2022-08-19T16:12:25;24.60;92.80
796;DHT22;381;48.770;9.188;2022-08-19T16:17:29;24.60;92.80
796;DHT22;381;48.770;9.188;2022-08-19T16:22:32;24.50;92.60
796;DHT22;381;48.770;9.188;2022-08-19T16:27:34;24.40;92.60
796;DHT22;381;48.770;9.188;2022-08-19T16:32:42;24.40;92.80
796;DHT22;381;48.770;9.188;2022-08-19T16:37:45;24.30;92.80
796;DHT22;381;48.770;9.188;2022-08-19T16:42:48;24.20;93.00
796;DHT22;381;48.770;9.188;2022-08-19T16:47:52;24.10;93.00
796;DHT22;381;48.770;9.188;2022-08-19T16:52:55;24.10;93.10
796;DHT22;381;48.770;9.188;2022-08-19T16:57:59;24.00;93.30
796;DHT22;381;48.770;9.188;2022-08-19T17:03:05;23.90;93.50
796;DHT22;381;48.770;9.188;2022-08-19T17:08:11;23.90;93.60
796;DHT22;381;48.770;9.188;2022-08-19T17:13:13;23.80;94.00
796;DHT22;381;48.770;9.188;2022-08-19T17:18:16;23.80;94.00
796;DHT22;381;48.770;9.188;2022-08-19T17:23:21;23.70;94.00
796;DHT22;381;48.770;9.188;2022-08-19T17:28:28;23.60;93.70
796;DHT22;381;48.770;9.188;2022-08-19T17:33:30;23.50;93.80
796;DHT22;381;48.770;9.188;2022-08-19T17:38:34;23.40;94.20
796;DHT22;381;48.770;9.188;2022-08-19T17:43:37;23.30;94.60
796;DHT22;381;48.770;9.188;2022-08-19T17:48:40;23.20;94.50
796;DHT22;381;48.770;9.188;2022-08-19T17:53:44;23.20;94.50
796;DHT22;381;48.770;9.188;2022-08-19T17:58:46;23.20;94.40
796;DHT22;381;48.770;9.188;2022-08-19T18:03:48;23.20;94.50
796;DHT22;381;48.770;9.188;2022-08-19T18:08:52;23.10;94.70
796;DHT22;381;48.770;9.188;2022-08-19T18:13:54;23.10;94.40
796;DHT22;381;48.770;9.188;2022-08-19T18:18:57;23.00;94.50
796;DHT22;381;48.770;9.188;2022-08-19T18:24:01;23.00;94.50
796;DHT22;381;48.770;9.188;2022-08-19T18:29:05;23.00;94.30
796;DHT22;381;48.770;9.188;2022-08-19T18:34:09;22.90;94.30
796;DHT22;381;48.770;9.188;2022-08-19T18:39:12;22.80;94.50
796;DHT22;381;48.770;9.188;2022-08-19T18:44:34;22.80;94.60
796;DHT22;381;48.770;9.188;2022-08-19T18:49:53;22.70;94.70
796;DHT22;381;48.770;9.188;2022-08-19T18:54:57;22.60;94.70
796;DHT22;381;48.770;9.188;2022-08-19T18:59:59;22.60;94.90
796;DHT22;381;48.770;9.188;2022-08-19T19:05:04;22.60;95.10
796;DHT22;381;48.770;9.188;2022-08-19T19:10:08;22.60;95.30
796;DHT22;381;48.770;9.188;2022-08-19T19:15:11;22.70;95.30
796;DHT22;381;48.770;9.188;2022-08-19T19:20:13;22.70;95.10
796;DHT22;381;48.770;9.188;2022-08-19T19:25:17;22.70;95.20
796;DHT22;381;48.770;9.188;2022-08-19T19:30:20;22.70;95.20
796;DHT22;381;48.770;9.188;2022-08-19T19:35:26;22.70;95.20
796;DHT22;381;48.770;9.188;2022-08-19T19:40:31;22.70;94.90
796;DHT22;381;48.770;9.188;2022-08-19T19:45:33;22.70;95.10
796;DHT22;381;48.770;9.188;2022-08-19T19:50:35;22.70;95.10
796;DHT22;381;48.770;9.188;2022-08-19T19:55:38;22.70;95.10
796;DHT22;381;48.770;9.188;2022-08-19T20:00:40;22.70;95.10
796;DHT22;381;48.770;9.188;2022-08-19T20:05:42;22.60;95.30
796;DHT22;381;48.770;9.188;2022-08-19T20:10:46;22.60;95.30
796;DHT22;381;48.770;9.188;2022-08-19T20:15:48;22.60;95.00
796;DHT22;381;48.770;9.188;2022-08-19T20:20:51;22.60;95.20
796;DHT22;381;48.770;9.188;2022-08-19T20:25:54;22.60;94.90
796;DHT22;381;48.770;9.188;2022-08-19T20:30:56;22.60;94.10
796;DHT22;381;48.770;9.188;2022-08-19T20:35:58;22.70;93.50
796;DHT22;381;48.770;9.188;2022-08-19T20:41:02;22.70;93.20
796;DHT22;381;48.770;9.188;2022-08-19T20:46:04;22.80;93.00
796;DHT22;381;48.770;9.188;2022-08-19T20:51:07;22.90;92.50
796;DHT22;381;48.770;9.188;2022-08-19T20:56:11;22.90;91.90
796;DHT22;381;48.770;9.188;2022-08-19T21:01:13;22.90;90.40
796;DHT22;381;48.770;9.188;2022-08-19T21:06:15;23.00;90.00
796;DHT22;381;48.770;9.188;2022-08-19T21:11:20;23.00;88.20
796;DHT22;381;48.770;9.188;2022-08-19T21:16:22;23.00;87.40
796;DHT22;381;48.770;9.188;2022-08-19T21:21:25;23.10;88.60
796;DHT22;381;48.770;9.188;2022-08-19T21:26:28;23.20;87.50
796;DHT22;381;48.770;9.188;2022-08-19T21:31:30;23.20;89.10
796;DHT22;381;48.770;9.188;2022-08-19T21:36:33;23.20;87.00
796;DHT22;381;48.770;9.188;2022-08-19T21:41:36;23.30;86.70
796;DHT22;381;48.770;9.188;2022-08-19T21:46:38;23.30;85.00
796;DHT22;381;48.770;9.188;2022-08-19T21:51:40;23.40;83.40
796;DHT22;381;48.770;9.188;2022-08-19T21:56:44;23.40;83.40
796;DHT22;381;48.770;9.188;2022-08-19T22:01:46;23.40;83.00
796;DHT22;381;48.770;9.188;2022-08-19T22:06:48;23.40;84.20
796;DHT22;381;48.770;9.188;2022-08-19T22:11:52;23.40;84.80
796;DHT22;381;48.770;9.188;2022-08-19T22:16:54;23.50;85.00
796;DHT22;381;48.770;9.188;2022-08-19T22:21:57;23.50;85.00
796;DHT22;381;48.770;9.188;2022-08-19T22:27:01;23.50;85.00
796;DHT22;381;48.770;9.188;2022-08-19T22:32:05;23.50;85.90
796;DHT22;381;48.770;9.188;2022-08-19T22:37:07;23.60;85.10
796;DHT22;381;48.770;9.188;2022-08-19T22:42:11;23.60;85.50
796;DHT22;381;48.770;9.188;2022-08-19T22:47:13;23.60;85.30
796;DHT22;381;48.770;9.188;2022-08-19T22:52:16;23.60;84.90
796;DHT22;381;48.770;9.188;2022-08-19T22:57:20;23.60;84.90
796;DHT22;381;48.770;9.188;2022-08-19T23:02:25;23.60;84.60
796;DHT22;381;48.770;9.188;2022-08-19T23:07:28;23.60;84.30
796;DHT22;381;48.770;9.188;2022-08-19T23:12:37;23.60;85.60
796;DHT22;381;48.770;9.188;2022-08-19T23:17:40;23.60;84.00
796;DHT22;381;48.770;9.188;2022-08-19T23:22:43;23.50;84.40
796;DHT22;381;48.770;9.188;2022-08-19T23:27:47;23.50;85.20
796;DHT22;381;48.770;9.188;2022-08-19T23:33:24;23.50;84.30
796;DHT22;381;48.770;9.188;2022-08-19T23:38:28;23.40;85.20
796;DHT22;381;48.770;9.188;2022-08-19T23:43:33;23.40;85.60
796;DHT22;381;48.770;9.188;2022-08-19T23:48:36;23.30;86.30
796;DHT22;381;48.770;9.188;2022-08-19T23:53:39;23.20;87.10
796;DHT22;381;48.770;9.188;2022-08-19T23:58:43;23.20;88.50
